sensor_id;sensor_type;location;lat;lon;timestamp;pressure;altitude;pressure_sealevel;temperature;humidity
74075;BME280;62428;51.412;5.432;2023-08-24T00:01:03;101675.97;;;19.98;82.33
74075;BME280;62428;51.412;5.432;2023-08-24T00:03:28;101662.00;;;20.00;82.31
74075;BME280;62428;51.412;5.432;2023-08-24T00:05:54;101665.97;;;20.02;81.99
74075;BME280;62428;51.412;5.432;2023-08-24T00:08:19;101664.72;;;20.00;82.00
74075;BME280;62428;51.412;5.432;2023-08-24T00:10:45;101669.72;;;19.97;82.18
74075;BME280;62428;51.412;5.432;2023-08-24T00:13:14;101671.97;;;19.95;82.55
74075;BME280;62428;51.412;5.432;2023-08-24T00:15:39;101668.94;;;19.97;82.54
74075;BME280;62428;51.412;5.432;2023-08-24T00:18:05;101657.19;;;19.96;82.67
74075;BME280;62428;51.412;5.432;2023-08-24T00:20:32;101653.34;;;19.97;82.18
74075;BME280;62428;51.412;5.432;2023-08-24T00:22:58;101636.41;;;19.92;82.38
74075;BME280;62428;51.412;5.432;2023-08-24T00:25:23;101645.72;;;19.91;82.44
74075;BME280;62428;51.412;5.432;2023-08-24T00:27:49;101642.53;;;19.89;82.53
74075;BME280;62428;51.412;5.432;2023-08-24T00:30:15;101642.72;;;19.84;82.87
74075;BME280;62428;51.412;5.432;2023-08-24T00:32:40;101641.94;;;19.83;83.01
74075;BME280;62428;51.412;5.432;2023-08-24T00:35:08;101639.22;;;19.83;83.18
74075;BME280;62428;51.412;5.432;2023-08-24T00:37:34;101631.03;;;19.83;83.17
74075;BME280;62428;51.412;5.432;2023-08-24T00:40:00;101630.44;;;19.77;83.60
74075;BME280;62428;51.412;5.432;2023-08-24T00:42:26;101634.28;;;19.76;83.40
74075;BME280;62428;51.412;5.432;2023-08-24T00:44:52;101630.00;;;19.75;83.45
74075;BME280;62428;51.412;5.432;2023-08-24T00:47:17;101622.44;;;19.72;83.70
74075;BME280;62428;51.412;5.432;2023-08-24T00:49:43;101625.50;;;19.71;83.84
74075;BME280;62428;51.412;5.432;2023-08-24T00:52:09;101630.03;;;19.67;84.06
74075;BME280;62428;51.412;5.432;2023-08-24T00:54:36;101630.22;;;19.62;84.24
74075;BME280;62428;51.412;5.432;2023-08-24T00:57:04;101632.81;;;19.58;84.67
74075;BME280;62428;51.412;5.432;2023-08-24T00:59:29;101627.03;;;19.59;84.84
74075;BME280;62428;51.412;5.432;2023-08-24T01:01:55;101619.19;;;19.58;85.19
74075;BME280;62428;51.412;5.432;2023-08-24T01:04:22;101628.16;;;19.58;85.28
74075;BME280;62428;51.412;5.432;2023-08-24T01:06:47;101633.28;;;19.60;85.03
74075;BME280;62428;51.412;5.432;2023-08-24T01:09:13;101638.72;;;19.60;85.69
74075;BME280;62428;51.412;5.432;2023-08-24T01:17:22;101622.94;;;19.53;85.62
74075;BME280;62428;51.412;5.432;2023-08-24T01:19:48;101620.22;;;19.53;85.62
74075;BME280;62428;51.412;5.432;2023-08-24T01:25:16;101628.84;;;19.55;84.46
74075;BME280;62428;51.412;5.432;2023-08-24T01:27:43;101623.59;;;19.50;85.65
74075;BME280;62428;51.412;5.432;2023-08-24T01:30:09;101612.56;;;19.47;85.53
74075;BME280;62428;51.412;5.432;2023-08-24T01:32:35;101611.78;;;19.46;85.86
74075;BME280;62428;51.412;5.432;2023-08-24T01:35:07;101610.16;;;19.45;85.83
74075;BME280;62428;51.412;5.432;2023-08-24T01:37:34;101603.16;;;19.44;86.35
74075;BME280;62428;51.412;5.432;2023-08-24T01:40:06;101609.25;;;19.41;86.11
74075;BME280;62428;51.412;5.432;2023-08-24T01:42:45;101616.19;;;19.38;86.64
74075;BME280;62428;51.412;5.432;2023-08-24T01:45:14;101614.69;;;19.41;87.02
74075;BME280;62428;51.412;5.432;2023-08-24T01:47:41;101617.75;;;19.39;86.78
74075;BME280;62428;51.412;5.432;2023-08-24T01:50:08;101616.50;;;19.37;86.90
74075;BME280;62428;51.412;5.432;2023-08-24T01:52:34;101608.78;;;19.39;87.15
74075;BME280;62428;51.412;5.432;2023-08-24T01:55:00;101614.56;;;19.37;87.15
74075;BME280;62428;51.412;5.432;2023-08-24T01:57:25;101614.56;;;19.37;87.20
74075;BME280;62428;51.412;5.432;2023-08-24T01:59:50;101627.41;;;19.37;87.26
74075;BME280;62428;51.412;5.432;2023-08-24T02:02:16;101614.09;;;19.35;87.35
74075;BME280;62428;51.412;5.432;2023-08-24T02:04:42;101617.63;;;19.36;87.31
74075;BME280;62428;51.412;5.432;2023-08-24T02:07:07;101608.97;;;19.34;87.66
74075;BME280;62428;51.412;5.432;2023-08-24T02:09:32;101603.72;;;19.29;87.99
74075;BME280;62428;51.412;5.432;2023-08-24T02:11:58;101591.25;;;19.28;87.97
74075;BME280;62428;51.412;5.432;2023-08-24T02:14:23;101584.19;;;19.27;87.65
74075;BME280;62428;51.412;5.432;2023-08-24T02:16:49;101585.69;;;19.24;87.74
74075;BME280;62428;51.412;5.432;2023-08-24T02:19:14;101591.31;;;19.19;88.20
74075;BME280;62428;51.412;5.432;2023-08-24T02:21:39;101591.19;;;19.15;88.31
74075;BME280;62428;51.412;5.432;2023-08-24T02:24:05;101587.53;;;19.11;88.81
74075;BME280;62428;51.412;5.432;2023-08-24T02:26:30;101591.38;;;19.10;88.78
74075;BME280;62428;51.412;5.432;2023-08-24T02:28:56;101600.34;;;19.11;88.85
74075;BME280;62428;51.412;5.432;2023-08-24T02:31:22;101592.16;;;19.11;89.10
74075;BME280;62428;51.412;5.432;2023-08-24T02:33:47;101601.63;;;19.13;89.14
74075;BME280;62428;51.412;5.432;2023-08-24T02:36:14;101594.56;;;19.12;89.27
74075;BME280;62428;51.412;5.432;2023-08-24T02:38:39;101585.72;;;19.15;89.03
74075;BME280;62428;51.412;5.432;2023-08-24T02:41:05;101586.84;;;19.14;89.49
74075;BME280;62428;51.412;5.432;2023-08-24T02:43:32;101579.50;;;19.15;89.51
74075;BME280;62428;51.412;5.432;2023-08-24T02:46:06;101574.84;;;19.15;89.26
74075;BME280;62428;51.412;5.432;2023-08-24T02:48:31;101567.78;;;19.14;89.65
74075;BME280;62428;51.412;5.432;2023-08-24T02:51:01;101563.50;;;19.13;89.61
74075;BME280;62428;51.412;5.432;2023-08-24T02:53:28;101559.63;;;19.14;90.16
74075;BME280;62428;51.412;5.432;2023-08-24T02:55:54;101556.44;;;19.12;90.21
74075;BME280;62428;51.412;5.432;2023-08-24T02:58:19;101544.75;;;19.12;90.61
74075;BME280;62428;51.412;5.432;2023-08-24T03:00:45;101537.25;;;19.09;91.32
74075;BME280;62428;51.412;5.432;2023-08-24T03:03:16;101537.56;;;19.07;91.73
74075;BME280;62428;51.412;5.432;2023-08-24T03:06:06;101524.78;;;19.08;90.75
74075;BME280;62428;51.412;5.432;2023-08-24T03:08:32;101510.69;;;19.06;93.62
74075;BME280;62428;51.412;5.432;2023-08-24T03:10:58;101494.22;;;19.02;94.67
74075;BME280;62428;51.412;5.432;2023-08-24T03:13:24;101481.13;;;18.95;95.82
74075;BME280;62428;51.412;5.432;2023-08-24T03:15:49;101484.84;;;18.91;96.07
74075;BME280;62428;51.412;5.432;2023-08-24T03:18:16;101484.56;;;18.83;96.21
74075;BME280;62428;51.412;5.432;2023-08-24T03:20:44;101492.13;;;18.78;96.27
74075;BME280;62428;51.412;5.432;2023-08-24T03:23:09;101494.69;;;18.74;96.48
74075;BME280;62428;51.412;5.432;2023-08-24T03:25:36;101488.78;;;18.72;97.10
74075;BME280;62428;51.412;5.432;2023-08-24T03:28:02;101484.34;;;18.68;97.15
74075;BME280;62428;51.412;5.432;2023-08-24T03:30:28;101473.00;;;18.66;97.88
74075;BME280;62428;51.412;5.432;2023-08-24T03:32:53;101465.19;;;18.64;98.15
74075;BME280;62428;51.412;5.432;2023-08-24T03:35:19;101459.28;;;18.62;98.42
74075;BME280;62428;51.412;5.432;2023-08-24T03:37:44;101430.78;;;18.59;98.53
74075;BME280;62428;51.412;5.432;2023-08-24T03:40:10;101423.16;;;18.53;98.40
74075;BME280;62428;51.412;5.432;2023-08-24T03:42:35;101411.88;;;18.42;99.39
74075;BME280;62428;51.412;5.432;2023-08-24T03:45:00;101408.56;;;18.36;99.87
74075;BME280;62428;51.412;5.432;2023-08-24T03:47:26;101398.34;;;18.33;100.00
74075;BME280;62428;51.412;5.432;2023-08-24T03:49:51;101387.31;;;18.30;100.00
74075;BME280;62428;51.412;5.432;2023-08-24T03:52:16;101380.13;;;18.25;100.00
74075;BME280;62428;51.412;5.432;2023-08-24T03:54:42;101388.50;;;18.20;100.00
74075;BME280;62428;51.412;5.432;2023-08-24T03:57:07;101383.41;;;18.18;100.00
74075;BME280;62428;51.412;5.432;2023-08-24T03:59:33;101386.25;;;18.22;100.00
74075;BME280;62428;51.412;5.432;2023-08-24T04:01:58;101376.63;;;18.24;100.00
74075;BME280;62428;51.412;5.432;2023-08-24T04:04:27;101363.03;;;18.24;100.00
74075;BME280;62428;51.412;5.432;2023-08-24T04:06:52;101366.53;;;18.25;100.00
74075;BME280;62428;51.412;5.432;2023-08-24T04:09:18;101360.00;;;18.26;100.00
74075;BME280;62428;51.412;5.432;2023-08-24T04:11:44;101366.22;;;18.27;100.00
74075;BME280;62428;51.412;5.432;2023-08-24T04:14:09;101370.53;;;18.28;100.00
74075;BME280;62428;51.412;5.432;2023-08-24T04:16:34;101373.72;;;18.30;100.00
74075;BME280;62428;51.412;5.432;2023-08-24T04:19:00;101389.84;;;18.35;99.05
74075;BME280;62428;51.412;5.432;2023-08-24T04:21:25;101394.28;;;18.39;99.11
74075;BME280;62428;51.412;5.432;2023-08-24T04:23:51;101418.25;;;18.46;99.64
74075;BME280;62428;51.412;5.432;2023-08-24T04:26:16;101420.78;;;18.51;100.00
74075;BME280;62428;51.412;5.432;2023-08-24T04:28:41;101420.91;;;18.55;100.00
74075;BME280;62428;51.412;5.432;2023-08-24T04:31:08;101419.44;;;18.57;100.00
74075;BME280;62428;51.412;5.432;2023-08-24T04:33:33;101423.75;;;18.58;100.00
74075;BME280;62428;51.412;5.432;2023-08-24T04:35:58;101421.19;;;18.62;100.00
74075;BME280;62428;51.412;5.432;2023-08-24T04:38:24;101420.03;;;18.63;99.37
74075;BME280;62428;51.412;5.432;2023-08-24T04:40:51;101425.94;;;18.65;98.73
74075;BME280;62428;51.412;5.432;2023-08-24T04:43:18;101418.47;;;18.62;97.54
74075;BME280;62428;51.412;5.432;2023-08-24T04:45:48;101421.63;;;18.64;98.83
74075;BME280;62428;51.412;5.432;2023-08-24T04:48:13;101425.94;;;18.65;98.77
74075;BME280;62428;51.412;5.432;2023-08-24T04:50:39;101429.94;;;18.68;98.76
74075;BME280;62428;51.412;5.432;2023-08-24T04:53:04;101428.00;;;18.68;98.77
74075;BME280;62428;51.412;5.432;2023-08-24T04:55:30;101425.41;;;18.72;99.11
74075;BME280;62428;51.412;5.432;2023-08-24T04:57:55;101424.63;;;18.71;99.29
74075;BME280;62428;51.412;5.432;2023-08-24T05:00:20;101425.41;;;18.72;98.99
74075;BME280;62428;51.412;5.432;2023-08-24T05:02:46;101427.69;;;18.70;100.00
74075;BME280;62428;51.412;5.432;2023-08-24T05:05:11;101428.47;;;18.70;99.19
74075;BME280;62428;51.412;5.432;2023-08-24T05:07:39;101427.34;;;18.71;100.00
74075;BME280;62428;51.412;5.432;2023-08-24T05:10:05;101431.66;;;18.72;100.00
74075;BME280;62428;51.412;5.432;2023-08-24T05:12:31;101436.31;;;18.72;100.00
74075;BME280;62428;51.412;5.432;2023-08-24T05:14:59;101438.22;;;18.71;100.00
74075;BME280;62428;51.412;5.432;2023-08-24T05:17:24;101433.13;;;18.70;100.00
74075;BME280;62428;51.412;5.432;2023-08-24T05:19:52;101435.84;;;18.70;100.00
74075;BME280;62428;51.412;5.432;2023-08-24T05:22:18;101433.13;;;18.70;100.00
74075;BME280;62428;51.412;5.432;2023-08-24T05:24:44;101430.06;;;18.71;100.00
74075;BME280;62428;51.412;5.432;2023-08-24T05:27:09;101421.56;;;18.73;100.00
74075;BME280;62428;51.412;5.432;2023-08-24T05:29:34;101421.22;;;18.74;100.00
74075;BME280;62428;51.412;5.432;2023-08-24T05:32:00;101419.19;;;18.71;99.41
74075;BME280;62428;51.412;5.432;2023-08-24T05:34:25;101434.69;;;18.71;98.39
74075;BME280;62428;51.412;5.432;2023-08-24T05:36:51;101430.72;;;18.68;98.98
74075;BME280;62428;51.412;5.432;2023-08-24T05:39:16;101417.91;;;18.69;99.28
74075;BME280;62428;51.412;5.432;2023-08-24T05:41:41;101414.41;;;18.68;98.98
74075;BME280;62428;51.412;5.432;2023-08-24T05:44:07;101404.16;;;18.65;99.07
74075;BME280;62428;51.412;5.432;2023-08-24T05:46:32;101395.88;;;18.61;98.58
74075;BME280;62428;51.412;5.432;2023-08-24T05:48:58;101387.25;;;18.59;98.81
74075;BME280;62428;51.412;5.432;2023-08-24T05:51:24;101395.41;;;18.59;98.19
74075;BME280;62428;51.412;5.432;2023-08-24T05:53:49;101390.44;;;18.61;98.59
74075;BME280;62428;51.412;5.432;2023-08-24T05:56:15;101389.31;;;18.62;98.50
74075;BME280;62428;51.412;5.432;2023-08-24T05:58:40;101378.56;;;18.66;98.48
74075;BME280;62428;51.412;5.432;2023-08-24T06:01:06;101366.66;;;18.71;98.84
74075;BME280;62428;51.412;5.432;2023-08-24T06:03:31;101357.06;;;18.73;98.41
74075;BME280;62428;51.412;5.432;2023-08-24T06:06:03;101364.06;;;18.74;97.56
74075;BME280;62428;51.412;5.432;2023-08-24T06:08:29;101361.00;;;18.76;98.26
74075;BME280;62428;51.412;5.432;2023-08-24T06:10:55;101354.59;;;18.80;98.27
74075;BME280;62428;51.412;5.432;2023-08-24T06:13:21;101353.91;;;18.83;98.37
74075;BME280;62428;51.412;5.432;2023-08-24T06:15:46;101348.59;;;18.87;97.48
74075;BME280;62428;51.412;5.432;2023-08-24T06:18:12;101338.66;;;18.91;97.46
74075;BME280;62428;51.412;5.432;2023-08-24T06:20:37;101338.78;;;18.95;96.57
74075;BME280;62428;51.412;5.432;2023-08-24T06:23:03;101336.97;;;18.99;96.32
74075;BME280;62428;51.412;5.432;2023-08-24T06:25:28;101347.31;;;19.06;95.94
74075;BME280;62428;51.412;5.432;2023-08-24T06:27:53;101346.75;;;19.12;95.11
74075;BME280;62428;51.412;5.432;2023-08-24T06:30:19;101357.09;;;19.19;95.45
74075;BME280;62428;51.412;5.432;2023-08-24T06:32:44;101345.16;;;19.24;94.95
74075;BME280;62428;51.412;5.432;2023-08-24T06:35:10;101354.72;;;19.30;94.25
74075;BME280;62428;51.412;5.432;2023-08-24T06:37:39;101350.31;;;19.37;94.05
74075;BME280;62428;51.412;5.432;2023-08-24T06:40:05;101346.66;;;19.46;93.54
74075;BME280;62428;51.412;5.432;2023-08-24T06:42:31;101343.84;;;19.54;93.22
74075;BME280;62428;51.412;5.432;2023-08-24T06:44:56;101346.47;;;19.63;92.68
74075;BME280;62428;51.412;5.432;2023-08-24T06:47:22;101347.63;;;19.74;92.41
74075;BME280;62428;51.412;5.432;2023-08-24T06:49:47;101343.66;;;19.84;92.87
74075;BME280;62428;51.412;5.432;2023-08-24T06:52:13;101352.94;;;19.95;90.98
74075;BME280;62428;51.412;5.432;2023-08-24T06:54:38;101355.56;;;20.04;90.12
74075;BME280;62428;51.412;5.432;2023-08-24T06:57:04;101350.41;;;20.15;89.47
74075;BME280;62428;51.412;5.432;2023-08-24T06:59:29;101350.72;;;20.26;88.71
74075;BME280;62428;51.412;5.432;2023-08-24T07:01:55;101355.03;;;20.39;88.62
74075;BME280;62428;51.412;5.432;2023-08-24T07:04:20;101353.81;;;20.52;86.79
74075;BME280;62428;51.412;5.432;2023-08-24T07:06:45;101362.09;;;20.68;86.23
74075;BME280;62428;51.412;5.432;2023-08-24T07:09:11;101349.63;;;20.83;85.02
74075;BME280;62428;51.412;5.432;2023-08-24T07:11:37;101338.38;;;21.01;84.62
74075;BME280;62428;51.412;5.432;2023-08-24T07:14:02;101329.41;;;21.16;84.19
74075;BME280;62428;51.412;5.432;2023-08-24T07:16:27;101321.31;;;21.36;83.89
74075;BME280;62428;51.412;5.432;2023-08-24T07:18:53;101324.47;;;21.54;81.92
74075;BME280;62428;51.412;5.432;2023-08-24T07:21:18;101326.41;;;21.69;82.40
74075;BME280;62428;51.412;5.432;2023-08-24T07:23:44;101314.72;;;21.88;82.13
74075;BME280;62428;51.412;5.432;2023-08-24T07:26:10;101317.84;;;22.06;80.68
74075;BME280;62428;51.412;5.432;2023-08-24T07:28:35;101324.94;;;22.26;79.47
74075;BME280;62428;51.412;5.432;2023-08-24T07:31:10;101329.28;;;22.47;81.05
74075;BME280;62428;51.412;5.432;2023-08-24T07:33:37;101329.16;;;22.63;77.10
74075;BME280;62428;51.412;5.432;2023-08-24T07:36:05;101323.19;;;22.77;76.67
74075;BME280;62428;51.412;5.432;2023-08-24T07:38:30;101315.94;;;22.88;77.21
74075;BME280;62428;51.412;5.432;2023-08-24T07:40:57;101325.56;;;23.01;76.41
74075;BME280;62428;51.412;5.432;2023-08-24T07:43:22;101312.44;;;23.11;75.77
74075;BME280;62428;51.412;5.432;2023-08-24T07:45:48;101310.97;;;23.17;74.77
74075;BME280;62428;51.412;5.432;2023-08-24T07:48:13;101316.09;;;23.18;76.29
74075;BME280;62428;51.412;5.432;2023-08-24T07:50:38;101309.63;;;23.30;77.45
74075;BME280;62428;51.412;5.432;2023-08-24T07:53:04;101324.22;;;23.38;75.95
74075;BME280;62428;51.412;5.432;2023-08-24T07:55:29;101331.00;;;23.44;77.41
74075;BME280;62428;51.412;5.432;2023-08-24T07:57:55;101327.50;;;23.47;75.79
74075;BME280;62428;51.412;5.432;2023-08-24T08:00:21;101326.00;;;23.50;75.64
74075;BME280;62428;51.412;5.432;2023-08-24T08:02:52;101325.22;;;23.49;75.82
74075;BME280;62428;51.412;5.432;2023-08-24T08:05:17;101324.81;;;23.51;75.93
74075;BME280;62428;51.412;5.432;2023-08-24T08:07:43;101313.84;;;23.51;73.88
74075;BME280;62428;51.412;5.432;2023-08-24T08:10:09;101303.69;;;23.51;74.68
74075;BME280;62428;51.412;5.432;2023-08-24T08:12:35;101317.88;;;23.57;75.42
74075;BME280;62428;51.412;5.432;2023-08-24T08:15:00;101309.41;;;23.66;76.09
74075;BME280;62428;51.412;5.432;2023-08-24T08:17:26;101305.09;;;23.68;74.24
74075;BME280;62428;51.412;5.432;2023-08-24T08:19:57;101298.13;;;23.74;75.54
74075;BME280;62428;51.412;5.432;2023-08-24T08:22:23;101297.47;;;23.81;75.26
74075;BME280;62428;51.412;5.432;2023-08-24T08:24:48;101295.19;;;23.87;74.27
74075;BME280;62428;51.412;5.432;2023-08-24T08:27:15;101290.13;;;23.89;73.93
74075;BME280;62428;51.412;5.432;2023-08-24T08:29:40;101277.19;;;23.89;73.55
74075;BME280;62428;51.412;5.432;2023-08-24T08:32:05;101286.66;;;23.92;75.03
74075;BME280;62428;51.412;5.432;2023-08-24T08:34:31;101296.06;;;23.94;73.50
74075;BME280;62428;51.412;5.432;2023-08-24T08:36:57;101293.34;;;23.94;73.93
74075;BME280;62428;51.412;5.432;2023-08-24T08:39:22;101287.47;;;23.96;74.78
74075;BME280;62428;51.412;5.432;2023-08-24T08:41:48;101278.84;;;23.94;74.72
74075;BME280;62428;51.412;5.432;2023-08-24T08:44:14;101266.25;;;23.93;72.82
74075;BME280;62428;51.412;5.432;2023-08-24T08:46:41;101250.19;;;23.91;73.81
74075;BME280;62428;51.412;5.432;2023-08-24T08:49:08;101248.97;;;23.89;73.93
74075;BME280;62428;51.412;5.432;2023-08-24T08:51:36;101240.75;;;23.89;75.73
74075;BME280;62428;51.412;5.432;2023-08-24T08:54:02;101224.69;;;23.91;75.95
74075;BME280;62428;51.412;5.432;2023-08-24T08:56:29;101218.84;;;23.92;75.69
74075;BME280;62428;51.412;5.432;2023-08-24T08:58:55;101207.88;;;23.92;75.88
74075;BME280;62428;51.412;5.432;2023-08-24T09:01:22;101212.56;;;23.92;75.08
74075;BME280;62428;51.412;5.432;2023-08-24T09:03:48;101205.94;;;23.96;76.58
74075;BME280;62428;51.412;5.432;2023-08-24T09:06:14;101196.94;;;23.96;75.02
74075;BME280;62428;51.412;5.432;2023-08-24T09:08:39;101179.69;;;23.95;75.03
74075;BME280;62428;51.412;5.432;2023-08-24T09:11:05;101179.72;;;23.99;75.03
74075;BME280;62428;51.412;5.432;2023-08-24T09:13:33;101164.84;;;24.00;74.91
74075;BME280;62428;51.412;5.432;2023-08-24T09:16:06;101160.19;;;24.04;75.15
74075;BME280;62428;51.412;5.432;2023-08-24T09:18:38;101157.88;;;24.06;74.69
74075;BME280;62428;51.412;5.432;2023-08-24T09:21:08;101155.16;;;24.10;75.24
74075;BME280;62428;51.412;5.432;2023-08-24T09:23:34;101148.91;;;24.13;75.74
74075;BME280;62428;51.412;5.432;2023-08-24T09:26:00;101143.84;;;24.15;75.19
74075;BME280;62428;51.412;5.432;2023-08-24T09:28:25;101146.59;;;24.15;74.49
74075;BME280;62428;51.412;5.432;2023-08-24T09:30:54;101162.28;;;24.18;75.35
74075;BME280;62428;51.412;5.432;2023-08-24T09:33:22;101162.31;;;24.22;76.11
74075;BME280;62428;51.412;5.432;2023-08-24T09:35:54;101175.66;;;24.23;75.46
74075;BME280;62428;51.412;5.432;2023-08-24T09:38:23;101191.75;;;24.25;73.96
74075;BME280;62428;51.412;5.432;2023-08-24T09:40:55;101214.91;;;24.27;77.61
74075;BME280;62428;51.412;5.432;2023-08-24T09:43:22;101223.59;;;24.33;79.73
74075;BME280;62428;51.412;5.432;2023-08-24T09:45:54;101226.41;;;24.40;77.40
74075;BME280;62428;51.412;5.432;2023-08-24T09:48:20;101220.97;;;24.44;76.22
74075;BME280;62428;51.412;5.432;2023-08-24T09:50:48;101219.06;;;24.48;78.66
74075;BME280;62428;51.412;5.432;2023-08-24T09:53:19;101222.22;;;24.50;76.63
74075;BME280;62428;51.412;5.432;2023-08-24T09:55:58;101235.94;;;24.50;75.84
74075;BME280;62428;51.412;5.432;2023-08-24T09:58:24;101237.47;;;24.47;79.33
74075;BME280;62428;51.412;5.432;2023-08-24T10:00:51;101247.69;;;24.47;79.50
74075;BME280;62428;51.412;5.432;2023-08-24T10:03:19;101254.28;;;24.42;76.42
74075;BME280;62428;51.412;5.432;2023-08-24T10:05:53;101263.28;;;24.39;78.06
74075;BME280;62428;51.412;5.432;2023-08-24T10:08:36;101259.31;;;24.36;76.65
74075;BME280;62428;51.412;5.432;2023-08-24T10:11:05;101253.78;;;24.33;80.29
74075;BME280;62428;51.412;5.432;2023-08-24T10:16:17;101250.59;;;24.27;79.64
74075;BME280;62428;51.412;5.432;2023-08-24T10:18:45;101240.34;;;24.21;79.88
74075;BME280;62428;51.412;5.432;2023-08-24T10:21:11;101234.00;;;24.16;78.14
74075;BME280;62428;51.412;5.432;2023-08-24T10:23:37;101235.16;;;24.12;80.04
74075;BME280;62428;51.412;5.432;2023-08-24T10:26:06;101235.47;;;24.07;82.70
74075;BME280;62428;51.412;5.432;2023-08-24T10:28:32;101248.00;;;24.04;82.63
74075;BME280;62428;51.412;5.432;2023-08-24T10:30:59;101266.75;;;23.98;84.11
74075;BME280;62428;51.412;5.432;2023-08-24T10:33:25;101272.16;;;23.91;83.29
74075;BME280;62428;51.412;5.432;2023-08-24T10:35:52;101278.75;;;23.87;83.48
74075;BME280;62428;51.412;5.432;2023-08-24T10:38:25;101287.28;;;23.82;84.61
74075;BME280;62428;51.412;5.432;2023-08-24T10:40:52;101296.63;;;23.77;81.32
74075;BME280;62428;51.412;5.432;2023-08-24T10:43:17;101299.31;;;23.73;81.36
74075;BME280;62428;51.412;5.432;2023-08-24T10:46:00;101307.91;;;23.72;82.36
74075;BME280;62428;51.412;5.432;2023-08-24T10:48:27;101314.91;;;23.69;82.14
74075;BME280;62428;51.412;5.432;2023-08-24T10:54:02;101271.78;;;23.66;80.97
74075;BME280;62428;51.412;5.432;2023-08-24T10:56:35;101275.66;;;23.65;82.24
74075;BME280;62428;51.412;5.432;2023-08-24T10:59:19;101271.78;;;23.66;81.74
74075;BME280;62428;51.412;5.432;2023-08-24T11:04:19;101278.03;;;23.67;82.25
74075;BME280;62428;51.412;5.432;2023-08-24T11:06:59;101276.91;;;23.68;82.67
74075;BME280;62428;51.412;5.432;2023-08-24T11:09:25;101269.09;;;23.70;82.81
74075;BME280;62428;51.412;5.432;2023-08-24T11:12:00;101257.75;;;23.71;83.85
74075;BME280;62428;51.412;5.432;2023-08-24T11:14:26;101242.50;;;23.74;86.18
74075;BME280;62428;51.412;5.432;2023-08-24T11:16:52;101224.88;;;23.75;85.86
74075;BME280;62428;51.412;5.432;2023-08-24T11:19:17;101220.97;;;23.76;86.57
74075;BME280;62428;51.412;5.432;2023-08-24T11:21:44;101234.31;;;23.77;88.88
74075;BME280;62428;51.412;5.432;2023-08-24T11:24:12;101227.22;;;23.76;86.21
74075;BME280;62428;51.412;5.432;2023-08-24T11:26:46;101227.22;;;23.76;87.25
74075;BME280;62428;51.412;5.432;2023-08-24T11:29:12;101225.66;;;23.75;86.98
74075;BME280;62428;51.412;5.432;2023-08-24T11:31:38;101215.44;;;23.72;88.85
74075;BME280;62428;51.412;5.432;2023-08-24T11:34:04;101197.78;;;23.70;89.06
74075;BME280;62428;51.412;5.432;2023-08-24T11:36:41;101210.28;;;23.67;89.83
74075;BME280;62428;51.412;5.432;2023-08-24T11:39:07;101198.06;;;23.61;89.94
74075;BME280;62428;51.412;5.432;2023-08-24T11:41:38;101192.47;;;23.54;92.05
74075;BME280;62428;51.412;5.432;2023-08-24T11:44:04;101181.06;;;23.48;91.18
74075;BME280;62428;51.412;5.432;2023-08-24T11:46:29;101172.38;;;23.42;93.10
74075;BME280;62428;51.412;5.432;2023-08-24T11:48:57;101160.13;;;23.36;94.07
74075;BME280;62428;51.412;5.432;2023-08-24T11:51:22;101137.38;;;23.32;94.57
74075;BME280;62428;51.412;5.432;2023-08-24T11:53:48;101109.53;;;23.30;94.20
74075;BME280;62428;51.412;5.432;2023-08-24T11:56:14;101090.31;;;23.27;93.90
74075;BME280;62428;51.412;5.432;2023-08-24T11:58:42;101076.19;;;23.25;94.36
74075;BME280;62428;51.412;5.432;2023-08-24T12:01:09;101057.06;;;23.28;95.31
74075;BME280;62428;51.412;5.432;2023-08-24T12:03:36;101055.19;;;23.36;94.37
74075;BME280;62428;51.412;5.432;2023-08-24T12:06:02;101060.78;;;23.47;94.78
74075;BME280;62428;51.412;5.432;2023-08-24T12:08:29;101060.09;;;23.53;92.92
74075;BME280;62428;51.412;5.432;2023-08-24T12:10:55;101083.31;;;23.63;95.94
74075;BME280;62428;51.412;5.432;2023-08-24T12:13:22;101081.41;;;23.71;91.73
74075;BME280;62428;51.412;5.432;2023-08-24T12:15:47;101072.03;;;23.72;90.58
74075;BME280;62428;51.412;5.432;2023-08-24T12:18:15;101079.44;;;23.68;90.42
74075;BME280;62428;51.412;5.432;2023-08-24T12:20:41;101093.91;;;23.65;91.06
74075;BME280;62428;51.412;5.432;2023-08-24T12:23:07;101100.53;;;23.64;91.72
74075;BME280;62428;51.412;5.432;2023-08-24T12:25:43;101114.69;;;23.66;91.01
74075;BME280;62428;51.412;5.432;2023-08-24T12:30:48;101111.31;;;23.79;91.74
74075;BME280;62428;51.412;5.432;2023-08-24T12:33:28;101122.38;;;23.87;90.86
74075;BME280;62428;51.412;5.432;2023-08-24T12:35:54;101118.53;;;23.91;92.02
74075;BME280;62428;51.412;5.432;2023-08-24T12:38:21;101122.88;;;23.96;89.14
74075;BME280;62428;51.412;5.432;2023-08-24T12:40:46;101122.88;;;23.96;90.13
74075;BME280;62428;51.412;5.432;2023-08-24T12:43:12;101125.59;;;23.96;89.10
74075;BME280;62428;51.412;5.432;2023-08-24T12:45:37;101117.75;;;23.94;88.73
74075;BME280;62428;51.412;5.432;2023-08-24T12:48:04;101117.34;;;23.92;87.79
74075;BME280;62428;51.412;5.432;2023-08-24T12:50:29;101116.19;;;23.93;88.84
74075;BME280;62428;51.412;5.432;2023-08-24T12:52:55;101121.66;;;23.93;90.24
74075;BME280;62428;51.412;5.432;2023-08-24T12:55:21;101125.97;;;23.94;88.94
74075;BME280;62428;51.412;5.432;2023-08-24T12:57:47;101127.19;;;23.97;91.18
74075;BME280;62428;51.412;5.432;2023-08-24T13:00:13;101121.34;;;23.98;90.84
74075;BME280;62428;51.412;5.432;2023-08-24T13:02:39;101129.56;;;23.98;91.11
74075;BME280;62428;51.412;5.432;2023-08-24T13:05:05;101126.81;;;23.98;91.04
74075;BME280;62428;51.412;5.432;2023-08-24T13:07:31;101129.91;;;23.93;89.45